sensor_id;sensor_type;location;lat;lon;timestamp;temperature;humidity
8527;DHT22;4301;48.362;8.478;2023-05-17T00:02:26;3.50;99.90
8527;DHT22;4301;48.362;8.478;2023-05-17T00:04:53;3.50;99.90
8527;DHT22;4301;48.362;8.478;2023-05-17T00:07:21;3.50;99.90
8527;DHT22;4301;48.362;8.478;2023-05-17T00:09:48;3.50;99.90
8527;DHT22;4301;48.362;8.478;2023-05-17T00:12:15;3.50;99.90
8527;DHT22;4301;48.362;8.478;2023-05-17T00:14:42;3.40;99.90
8527;DHT22;4301;48.362;8.478;2023-05-17T00:17:09;3.40;99.90
8527;DHT22;4301;48.362;8.478;2023-05-17T00:19:36;3.40;99.90
8527;DHT22;4301;48.362;8.478;2023-05-17T00:22:03;3.40;99.90
8527;DHT22;4301;48.362;8.478;2023-05-17T00:24:32;3.40;99.90
8527;DHT22;4301;48.362;8.478;2023-05-17T00:26:59;3.40;99.90
8527;DHT22;4301;48.362;8.478;2023-05-17T00:29:25;3.40;99.90
8527;DHT22;4301;48.362;8.478;2023-05-17T00:31:52;3.40;99.90
8527;DHT22;4301;48.362;8.478;2023-05-17T00:34:19;3.40;99.90
8527;DHT22;4301;48.362;8.478;2023-05-17T00:36:46;3.50;99.90
8527;DHT22;4301;48.362;8.478;2023-05-17T00:39:13;3.50;99.90
8527;DHT22;4301;48.362;8.478;2023-05-17T00:41:41;3.50;99.90
8527;DHT22;4301;48.362;8.478;2023-05-17T00:44:09;3.60;99.90
8527;DHT22;4301;48.362;8.478;2023-05-17T00:46:35;3.60;99.90
8527;DHT22;4301;48.362;8.478;2023-05-17T00:49:02;3.50;99.90
8527;DHT22;4301;48.362;8.478;2023-05-17T00:51:29;3.50;99.90
8527;DHT22;4301;48.362;8.478;2023-05-17T00:53:57;3.50;99.90
8527;DHT22;4301;48.362;8.478;2023-05-17T00:56:24;3.40;99.90
8527;DHT22;4301;48.362;8.478;2023-05-17T00:58:53;3.40;99.90
8527;DHT22;4301;48.362;8.478;2023-05-17T01:01:20;3.30;99.90
8527;DHT22;4301;48.362;8.478;2023-05-17T01:03:47;3.30;99.90
8527;DHT22;4301;48.362;8.478;2023-05-17T01:06:15;3.30;99.90
8527;DHT22;4301;48.362;8.478;2023-05-17T01:08:42;3.20;99.90
8527;DHT22;4301;48.362;8.478;2023-05-17T01:11:16;3.20;99.90
8527;DHT22;4301;48.362;8.478;2023-05-17T01:13:51;3.20;99.90
8527;DHT22;4301;48.362;8.478;2023-05-17T01:16:26;3.20;99.90
8527;DHT22;4301;48.362;8.478;2023-05-17T01:18:59;3.20;99.90
8527;DHT22;4301;48.362;8.478;2023-05-17T01:21:39;3.20;99.90
8527;DHT22;4301;48.362;8.478;2023-05-17T01:24:24;3.20;99.90
8527;DHT22;4301;48.362;8.478;2023-05-17T01:26:54;3.20;99.90
8527;DHT22;4301;48.362;8.478;2023-05-17T01:29:23;3.20;99.90
8527;DHT22;4301;48.362;8.478;2023-05-17T01:31:52;3.20;99.90
8527;DHT22;4301;48.362;8.478;2023-05-17T01:34:27;3.20;99.90
8527;DHT22;4301;48.362;8.478;2023-05-17T01:36:54;3.20;99.90
8527;DHT22;4301;48.362;8.478;2023-05-17T01:39:22;3.20;99.90
8527;DHT22;4301;48.362;8.478;2023-05-17T01:41:59;3.20;99.90
8527;DHT22;4301;48.362;8.478;2023-05-17T01:44:34;3.10;99.90
8527;DHT22;4301;48.362;8.478;2023-05-17T01:47:08;3.20;99.90
8527;DHT22;4301;48.362;8.478;2023-05-17T01:49:39;3.20;99.90
8527;DHT22;4301;48.362;8.478;2023-05-17T01:52:10;3.20;99.90
8527;DHT22;4301;48.362;8.478;2023-05-17T01:54:45;3.20;99.90
8527;DHT22;4301;48.362;8.478;2023-05-17T01:57:14;3.20;99.90
8527;DHT22;4301;48.362;8.478;2023-05-17T01:59:43;3.20;99.90
8527;DHT22;4301;48.362;8.478;2023-05-17T02:02:11;3.20;99.90
8527;DHT22;4301;48.362;8.478;2023-05-17T02:04:38;3.20;99.90
8527;DHT22;4301;48.362;8.478;2023-05-17T02:07:05;3.20;99.90
8527;DHT22;4301;48.362;8.478;2023-05-17T02:09:32;3.10;99.90
8527;DHT22;4301;48.362;8.478;2023-05-17T02:11:59;3.10;99.90
8527;DHT22;4301;48.362;8.478;2023-05-17T02:14:28;3.10;99.90
8527;DHT22;4301;48.362;8.478;2023-05-17T02:16:55;3.10;99.90
8527;DHT22;4301;48.362;8.478;2023-05-17T02:19:22;3.00;99.90
8527;DHT22;4301;48.362;8.478;2023-05-17T02:21:49;3.00;99.90
8527;DHT22;4301;48.362;8.478;2023-05-17T02:24:16;3.10;99.90
8527;DHT22;4301;48.362;8.478;2023-05-17T02:26:42;3.00;99.90
8527;DHT22;4301;48.362;8.478;2023-05-17T02:29:10;3.00;99.90
8527;DHT22;4301;48.362;8.478;2023-05-17T02:31:38;2.90;99.90
8527;DHT22;4301;48.362;8.478;2023-05-17T02:34:05;2.90;99.90
8527;DHT22;4301;48.362;8.478;2023-05-17T02:36:32;2.90;99.90
8527;DHT22;4301;48.362;8.478;2023-05-17T02:38:59;2.90;99.90
8527;DHT22;4301;48.362;8.478;2023-05-17T02:41:26;2.80;99.90
8527;DHT22;4301;48.362;8.478;2023-05-17T02:43:53;2.80;99.90
8527;DHT22;4301;48.362;8.478;2023-05-17T02:46:20;2.80;99.90
8527;DHT22;4301;48.362;8.478;2023-05-17T02:48:48;2.80;99.90
8527;DHT22;4301;48.362;8.478;2023-05-17T02:51:15;2.80;99.90
8527;DHT22;4301;48.362;8.478;2023-05-17T02:53:42;2.70;99.90
8527;DHT22;4301;48.362;8.478;2023-05-17T02:56:09;2.70;99.90
8527;DHT22;4301;48.362;8.478;2023-05-17T02:58:36;2.70;99.90
8527;DHT22;4301;48.362;8.478;2023-05-17T03:01:03;2.70;99.90
8527;DHT22;4301;48.362;8.478;2023-05-17T03:03:30;2.70;99.90
8527;DHT22;4301;48.362;8.478;2023-05-17T03:06:01;2.80;99.90
8527;DHT22;4301;48.362;8.478;2023-05-17T03:08:29;2.80;99.90
8527;DHT22;4301;48.362;8.478;2023-05-17T03:10:56;2.70;99.90
8527;DHT22;4301;48.362;8.478;2023-05-17T03:13:23;2.80;99.90
8527;DHT22;4301;48.362;8.478;2023-05-17T03:15:50;2.80;99.90
8527;DHT22;4301;48.362;8.478;2023-05-17T03:18:17;2.70;99.90
8527;DHT22;4301;48.362;8.478;2023-05-17T03:20:44;2.80;99.90
8527;DHT22;4301;48.362;8.478;2023-05-17T03:23:13;2.70;99.90
8527;DHT22;4301;48.362;8.478;2023-05-17T03:25:40;2.70;99.90
8527;DHT22;4301;48.362;8.478;2023-05-17T03:28:07;2.60;99.90
8527;DHT22;4301;48.362;8.478;2023-05-17T03:30:34;2.50;99.90
8527;DHT22;4301;48.362;8.478;2023-05-17T03:33:01;2.60;99.90
8527;DHT22;4301;48.362;8.478;2023-05-17T03:35:28;2.60;99.90
8527;DHT22;4301;48.362;8.478;2023-05-17T03:37:55;2.60;99.90
8527;DHT22;4301;48.362;8.478;2023-05-17T03:40:23;2.50;99.90
8527;DHT22;4301;48.362;8.478;2023-05-17T03:42:50;2.50;99.90
8527;DHT22;4301;48.362;8.478;2023-05-17T03:45:18;2.40;99.90
8527;DHT22;4301;48.362;8.478;2023-05-17T03:47:45;2.40;99.90
8527;DHT22;4301;48.362;8.478;2023-05-17T03:50:12;2.40;99.90
8527;DHT22;4301;48.362;8.478;2023-05-17T03:52:39;2.40;99.90
8527;DHT22;4301;48.362;8.478;2023-05-17T03:55:07;2.40;99.90
8527;DHT22;4301;48.362;8.478;2023-05-17T03:57:36;2.40;99.90
8527;DHT22;4301;48.362;8.478;2023-05-17T04:00:03;2.40;99.90
8527;DHT22;4301;48.362;8.478;2023-05-17T04:02:34;2.30;99.90
8527;DHT22;4301;48.362;8.478;2023-05-17T04:05:01;2.30;99.90
8527;DHT22;4301;48.362;8.478;2023-05-17T04:07:28;2.30;99.90
8527;DHT22;4301;48.362;8.478;2023-05-17T04:09:56;2.20;99.90
8527;DHT22;4301;48.362;8.478;2023-05-17T04:12:23;2.30;99.90
8527;DHT22;4301;48.362;8.478;2023-05-17T04:14:52;2.30;99.90
8527;DHT22;4301;48.362;8.478;2023-05-17T04:17:19;2.20;99.90
8527;DHT22;4301;48.362;8.478;2023-05-17T04:19:46;2.20;99.90
8527;DHT22;4301;48.362;8.478;2023-05-17T04:22:13;2.30;99.90
8527;DHT22;4301;48.362;8.478;2023-05-17T04:24:40;2.30;99.90
8527;DHT22;4301;48.362;8.478;2023-05-17T04:27:07;2.30;99.90
8527;DHT22;4301;48.362;8.478;2023-05-17T04:29:34;2.30;99.90
8527;DHT22;4301;48.362;8.478;2023-05-17T04:32:03;2.30;99.90
8527;DHT22;4301;48.362;8.478;2023-05-17T04:34:30;2.30;99.90
8527;DHT22;4301;48.362;8.478;2023-05-17T04:36:57;2.40;99.90
8527;DHT22;4301;48.362;8.478;2023-05-17T04:39:24;2.40;99.90
8527;DHT22;4301;48.362;8.478;2023-05-17T04:41:51;2.50;99.90
8527;DHT22;4301;48.362;8.478;2023-05-17T04:44:18;2.40;99.90
8527;DHT22;4301;48.362;8.478;2023-05-17T04:46:45;2.50;99.90
8527;DHT22;4301;48.362;8.478;2023-05-17T04:49:13;2.50;99.90
8527;DHT22;4301;48.362;8.478;2023-05-17T04:51:40;2.60;99.90
8527;DHT22;4301;48.362;8.478;2023-05-17T04:54:07;2.60;99.90
8527;DHT22;4301;48.362;8.478;2023-05-17T04:56:34;2.70;99.90
8527;DHT22;4301;48.362;8.478;2023-05-17T04:59:01;2.80;99.90
8527;DHT22;4301;48.362;8.478;2023-05-17T05:01:29;2.60;99.90
8527;DHT22;4301;48.362;8.478;2023-05-17T05:03:56;2.70;99.90
8527;DHT22;4301;48.362;8.478;2023-05-17T05:06:25;2.80;99.90
8527;DHT22;4301;48.362;8.478;2023-05-17T05:08:52;2.80;99.90
8527;DHT22;4301;48.362;8.478;2023-05-17T05:11:19;2.80;99.90
8527;DHT22;4301;48.362;8.478;2023-05-17T05:13:45;2.90;99.90
8527;DHT22;4301;48.362;8.478;2023-05-17T05:16:12;3.00;99.90
8527;DHT22;4301;48.362;8.478;2023-05-17T05:18:39;3.00;99.90
8527;DHT22;4301;48.362;8.478;2023-05-17T05:21:06;3.10;99.90
8527;DHT22;4301;48.362;8.478;2023-05-17T05:23:34;3.20;99.90
8527;DHT22;4301;48.362;8.478;2023-05-17T05:26:01;3.20;99.90
8527;DHT22;4301;48.362;8.478;2023-05-17T05:28:28;3.30;99.90
8527;DHT22;4301;48.362;8.478;2023-05-17T05:30:56;3.40;99.90
8527;DHT22;4301;48.362;8.478;2023-05-17T05:33:24;3.50;99.90
8527;DHT22;4301;48.362;8.478;2023-05-17T05:35:51;3.60;99.90
8527;DHT22;4301;48.362;8.478;2023-05-17T05:38:18;3.60;99.90
8527;DHT22;4301;48.362;8.478;2023-05-17T05:40:47;3.70;99.90
8527;DHT22;4301;48.362;8.478;2023-05-17T05:43:14;3.70;99.90
8527;DHT22;4301;48.362;8.478;2023-05-17T05:45:41;3.80;99.90
8527;DHT22;4301;48.362;8.478;2023-05-17T05:48:11;3.90;99.90
8527;DHT22;4301;48.362;8.478;2023-05-17T05:50:39;4.00;99.90
8527;DHT22;4301;48.362;8.478;2023-05-17T05:53:07;4.20;99.90
8527;DHT22;4301;48.362;8.478;2023-05-17T05:55:34;4.30;99.90
8527;DHT22;4301;48.362;8.478;2023-05-17T05:58:02;4.40;99.90
8527;DHT22;4301;48.362;8.478;2023-05-17T06:00:29;4.60;99.90
8527;DHT22;4301;48.362;8.478;2023-05-17T06:02:56;4.80;99.90
8527;DHT22;4301;48.362;8.478;2023-05-17T06:05:23;4.90;99.90
8527;DHT22;4301;48.362;8.478;2023-05-17T06:07:50;5.20;99.90
8527;DHT22;4301;48.362;8.478;2023-05-17T06:10:17;5.30;99.90
8527;DHT22;4301;48.362;8.478;2023-05-17T06:12:44;5.50;99.90
8527;DHT22;4301;48.362;8.478;2023-05-17T06:15:12;5.70;99.90
8527;DHT22;4301;48.362;8.478;2023-05-17T06:17:39;5.80;96.30
8527;DHT22;4301;48.362;8.478;2023-05-17T06:20:07;6.00;94.70
8527;DHT22;4301;48.362;8.478;2023-05-17T06:22:34;6.10;90.30
8527;DHT22;4301;48.362;8.478;2023-05-17T06:25:02;6.20;85.30
8527;DHT22;4301;48.362;8.478;2023-05-17T06:27:30;6.40;94.30
8527;DHT22;4301;48.362;8.478;2023-05-17T06:29:57;6.50;53.20
8527;DHT22;4301;48.362;8.478;2023-05-17T06:32:26;6.50;1.00
8527;DHT22;4301;48.362;8.478;2023-05-17T06:34:53;6.60;2.80
8527;DHT22;4301;48.362;8.478;2023-05-17T06:37:19;6.70;2.00
8527;DHT22;4301;48.362;8.478;2023-05-17T06:39:46;6.90;16.10
8527;DHT22;4301;48.362;8.478;2023-05-17T06:42:13;7.00;1.00
8527;DHT22;4301;48.362;8.478;2023-05-17T06:44:40;7.10;1.00
8527;DHT22;4301;48.362;8.478;2023-05-17T06:47:07;7.20;1.00
8527;DHT22;4301;48.362;8.478;2023-05-17T06:49:36;7.30;1.00
8527;DHT22;4301;48.362;8.478;2023-05-17T06:52:03;7.50;1.00
8527;DHT22;4301;48.362;8.478;2023-05-17T06:54:31;7.60;1.00
8527;DHT22;4301;48.362;8.478;2023-05-17T06:56:59;7.60;1.00
8527;DHT22;4301;48.362;8.478;2023-05-17T06:59:26;7.60;1.00
8527;DHT22;4301;48.362;8.478;2023-05-17T07:01:53;7.80;1.00
8527;DHT22;4301;48.362;8.478;2023-05-17T07:04:20;8.00;1.00
8527;DHT22;4301;48.362;8.478;2023-05-17T07:06:48;8.20;1.00
8527;DHT22;4301;48.362;8.478;2023-05-17T07:09:15;8.40;99.90
8527;DHT22;4301;48.362;8.478;2023-05-17T07:11:42;8.50;1.00
8527;DHT22;4301;48.362;8.478;2023-05-17T07:14:09;8.60;31.70
8527;DHT22;4301;48.362;8.478;2023-05-17T07:16:36;8.60;1.00
8527;DHT22;4301;48.362;8.478;2023-05-17T07:19:03;8.80;99.90
8527;DHT22;4301;48.362;8.478;2023-05-17T07:21:30;8.90;99.90
8527;DHT22;4301;48.362;8.478;2023-05-17T07:23:58;8.80;99.90
8527;DHT22;4301;48.362;8.478;2023-05-17T07:26:25;8.90;99.90
8527;DHT22;4301;48.362;8.478;2023-05-17T07:28:53;9.00;99.90
8527;DHT22;4301;48.362;8.478;2023-05-17T07:31:20;9.20;99.90
8527;DHT22;4301;48.362;8.478;2023-05-17T07:33:46;9.20;99.30
8527;DHT22;4301;48.362;8.478;2023-05-17T07:36:13;9.10;1.00
8527;DHT22;4301;48.362;8.478;2023-05-17T07:38:40;9.10;1.00
8527;DHT22;4301;48.362;8.478;2023-05-17T07:41:10;9.00;1.00
8527;DHT22;4301;48.362;8.478;2023-05-17T07:43:38;9.10;99.90
8527;DHT22;4301;48.362;8.478;2023-05-17T07:46:05;9.10;99.90
8527;DHT22;4301;48.362;8.478;2023-05-17T07:48:32;9.10;1.00
8527;DHT22;4301;48.362;8.478;2023-05-17T07:50:59;9.00;1.00
8527;DHT22;4301;48.362;8.478;2023-05-17T07:53:26;9.10;1.00
8527;DHT22;4301;48.362;8.478;2023-05-17T07:55:53;9.00;1.00
8527;DHT22;4301;48.362;8.478;2023-05-17T07:58:21;9.00;99.90
8527;DHT22;4301;48.362;8.478;2023-05-17T08:00:48;9.20;1.00
8527;DHT22;4301;48.362;8.478;2023-05-17T08:03:15;9.20;1.00
8527;DHT22;4301;48.362;8.478;2023-05-17T08:05:42;9.50;1.00
8527;DHT22;4301;48.362;8.478;2023-05-17T08:08:09;9.70;1.00
8527;DHT22;4301;48.362;8.478;2023-05-17T08:10:36;10.00;1.00
8527;DHT22;4301;48.362;8.478;2023-05-17T08:13:04;10.20;99.90
8527;DHT22;4301;48.362;8.478;2023-05-17T08:15:33;10.50;1.00
8527;DHT22;4301;48.362;8.478;2023-05-17T08:18:00;10.60;1.00
8527;DHT22;4301;48.362;8.478;2023-05-17T08:20:27;10.90;99.90
8527;DHT22;4301;48.362;8.478;2023-05-17T08:22:53;10.80;1.00
8527;DHT22;4301;48.362;8.478;2023-05-17T08:25:20;11.10;32.80
8527;DHT22;4301;48.362;8.478;2023-05-17T08:27:47;11.20;1.00
8527;DHT22;4301;48.362;8.478;2023-05-17T08:30:14;11.60;99.90
8527;DHT22;4301;48.362;8.478;2023-05-17T08:32:43;12.00;1.00
8527;DHT22;4301;48.362;8.478;2023-05-17T08:35:10;12.50;1.00
8527;DHT22;4301;48.362;8.478;2023-05-17T08:37:37;12.50;1.00
8527;DHT22;4301;48.362;8.478;2023-05-17T08:40:05;12.20;1.00
8527;DHT22;4301;48.362;8.478;2023-05-17T08:42:34;12.30;99.90
8527;DHT22;4301;48.362;8.478;2023-05-17T08:45:02;12.40;99.90
8527;DHT22;4301;48.362;8.478;2023-05-17T08:47:30;12.90;1.00
8527;DHT22;4301;48.362;8.478;2023-05-17T08:50:00;13.20;99.90
8527;DHT22;4301;48.362;8.478;2023-05-17T08:52:30;13.40;99.90
8527;DHT22;4301;48.362;8.478;2023-05-17T08:54:58;13.20;72.30
8527;DHT22;4301;48.362;8.478;2023-05-17T08:57:32;12.90;99.90
8527;DHT22;4301;48.362;8.478;2023-05-17T09:00:00;12.50;7.20
8527;DHT22;4301;48.362;8.478;2023-05-17T09:02:29;12.30;99.90
8527;DHT22;4301;48.362;8.478;2023-05-17T09:04:57;12.20;99.90
8527;DHT22;4301;48.362;8.478;2023-05-17T09:07:26;12.10;99.90
8527;DHT22;4301;48.362;8.478;2023-05-17T09:09:53;11.80;99.90
8527;DHT22;4301;48.362;8.478;2023-05-17T09:12:21;11.70;99.90
8527;DHT22;4301;48.362;8.478;2023-05-17T09:14:48;11.60;99.90
8527;DHT22;4301;48.362;8.478;2023-05-17T09:17:16;11.60;99.90
8527;DHT22;4301;48.362;8.478;2023-05-17T09:19:44;11.60;99.90
8527;DHT22;4301;48.362;8.478;2023-05-17T09:22:12;12.50;99.90
8527;DHT22;4301;48.362;8.478;2023-05-17T09:24:42;13.10;99.90
8527;DHT22;4301;48.362;8.478;2023-05-17T09:27:13;13.60;1.00
8527;DHT22;4301;48.362;8.478;2023-05-17T09:29:40;14.00;1.00
8527;DHT22;4301;48.362;8.478;2023-05-17T09:32:13;13.90;1.00
8527;DHT22;4301;48.362;8.478;2023-05-17T09:34:41;13.80;1.00
8527;DHT22;4301;48.362;8.478;2023-05-17T09:37:14;13.70;1.00
8527;DHT22;4301;48.362;8.478;2023-05-17T09:39:43;14.00;1.00
8527;DHT22;4301;48.362;8.478;2023-05-17T09:42:10;14.10;1.00
8527;DHT22;4301;48.362;8.478;2023-05-17T09:44:48;13.90;1.00
8527;DHT22;4301;48.362;8.478;2023-05-17T09:47:22;13.80;1.00
8527;DHT22;4301;48.362;8.478;2023-05-17T09:49:50;13.60;1.00
8527;DHT22;4301;48.362;8.478;2023-05-17T09:52:17;13.60;1.00
8527;DHT22;4301;48.362;8.478;2023-05-17T09:54:52;13.40;1.00
8527;DHT22;4301;48.362;8.478;2023-05-17T09:57:20;13.50;1.00
8527;DHT22;4301;48.362;8.478;2023-05-17T09:59:47;13.30;1.00
8527;DHT22;4301;48.362;8.478;2023-05-17T10:02:19;13.40;1.00
8527;DHT22;4301;48.362;8.478;2023-05-17T10:04:48;13.30;1.00
8527;DHT22;4301;48.362;8.478;2023-05-17T10:07:17;13.00;1.00
8527;DHT22;4301;48.362;8.478;2023-05-17T10:09:46;12.70;1.00
8527;DHT22;4301;48.362;8.478;2023-05-17T10:12:16;12.80;1.00
8527;DHT22;4301;48.362;8.478;2023-05-17T10:14:44;13.30;1.00
8527;DHT22;4301;48.362;8.478;2023-05-17T10:17:12;13.20;1.00
8527;DHT22;4301;48.362;8.478;2023-05-17T10:19:40;13.30;1.00
8527;DHT22;4301;48.362;8.478;2023-05-17T10:22:07;13.30;1.00
8527;DHT22;4301;48.362;8.478;2023-05-17T10:24:35;13.40;1.00
8527;DHT22;4301;48.362;8.478;2023-05-17T10:27:03;13.60;1.00
8527;DHT22;4301;48.362;8.478;2023-05-17T10:29:33;14.70;1.00
8527;DHT22;4301;48.362;8.478;2023-05-17T10:32:03;15.50;99.90
8527;DHT22;4301;48.362;8.478;2023-05-17T10:34:33;16.00;99.90
8527;DHT22;4301;48.362;8.478;2023-05-17T10:37:01;16.80;99.90
8527;DHT22;4301;48.362;8.478;2023-05-17T10:39:29;16.30;99.90
8527;DHT22;4301;48.362;8.478;2023-05-17T10:41:57;15.70;99.90
8527;DHT22;4301;48.362;8.478;2023-05-17T10:44:25;15.90;99.90
8527;DHT22;4301;48.362;8.478;2023-05-17T10:46:56;15.20;99.90
8527;DHT22;4301;48.362;8.478;2023-05-17T10:49:24;15.50;99.90
8527;DHT22;4301;48.362;8.478;2023-05-17T10:51:52;15.10;99.90
8527;DHT22;4301;48.362;8.478;2023-05-17T10:54:20;14.70;99.90
8527;DHT22;4301;48.362;8.478;2023-05-17T10:56:48;14.20;99.90
8527;DHT22;4301;48.362;8.478;2023-05-17T10:59:19;13.80;99.90
8527;DHT22;4301;48.362;8.478;2023-05-17T11:01:51;13.70;99.90
8527;DHT22;4301;48.362;8.478;2023-05-17T11:04:21;13.90;99.90
8527;DHT22;4301;48.362;8.478;2023-05-17T11:06:51;14.60;99.90
8527;DHT22;4301;48.362;8.478;2023-05-17T11:09:21;15.20;99.90
8527;DHT22;4301;48.362;8.478;2023-05-17T11:12:05;15.30;99.90
8527;DHT22;4301;48.362;8.478;2023-05-17T11:14:45;14.90;99.90
8527;DHT22;4301;48.362;8.478;2023-05-17T11:17:12;14.20;99.90
8527;DHT22;4301;48.362;8.478;2023-05-17T11:19:54;13.80;99.90
8527;DHT22;4301;48.362;8.478;2023-05-17T11:22:22;13.50;99.90
8527;DHT22;4301;48.362;8.478;2023-05-17T11:24:51;13.50;99.90
8527;DHT22;4301;48.362;8.478;2023-05-17T11:27:19;13.10;99.90
8527;DHT22;4301;48.362;8.478;2023-05-17T11:29:52;13.70;99.90
8527;DHT22;4301;48.362;8.478;2023-05-17T11:32:26;14.00;99.90
8527;DHT22;4301;48.362;8.478;2023-05-17T11:34:54;14.40;99.90
8527;DHT22;4301;48.362;8.478;2023-05-17T11:37:25;14.40;99.90
8527;DHT22;4301;48.362;8.478;2023-05-17T11:40:03;14.40;99.90
8527;DHT22;4301;48.362;8.478;2023-05-17T11:42:30;14.90;99.90
8527;DHT22;4301;48.362;8.478;2023-05-17T11:44:59;15.70;99.90
8527;DHT22;4301;48.362;8.478;2023-05-17T11:47:27;15.60;99.90
8527;DHT22;4301;48.362;8.478;2023-05-17T11:49:59;15.80;99.90
8527;DHT22;4301;48.362;8.478;2023-05-17T11:52:26;15.80;99.90
8527;DHT22;4301;48.362;8.478;2023-05-17T11:54:54;15.90;99.90
8527;DHT22;4301;48.362;8.478;2023-05-17T11:57:28;16.10;99.90
8527;DHT22;4301;48.362;8.478;2023-05-17T11:59:59;16.00;99.90
8527;DHT22;4301;48.362;8.478;2023-05-17T12:02:27;15.40;99.90
8527;DHT22;4301;48.362;8.478;2023-05-17T12:04:56;15.30;99.90
8527;DHT22;4301;48.362;8.478;2023-05-17T12:07:23;14.50;99.90
8527;DHT22;4301;48.362;8.478;2023-05-17T12:09:51;14.10;99.90
8527;DHT22;4301;48.362;8.478;2023-05-17T12:12:18;14.00;99.90
8527;DHT22;4301;48.362;8.478;2023-05-17T12:14:47;13.80;99.90
8527;DHT22;4301;48.362;8.478;2023-05-17T12:17:23;13.80;99.90
8527;DHT22;4301;48.362;8.478;2023-05-17T12:19:52;14.50;99.90
8527;DHT22;4301;48.362;8.478;2023-05-17T12:22:21;14.50;99.90
8527;DHT22;4301;48.362;8.478;2023-05-17T12:24:48;14.50;99.90
8527;DHT22;4301;48.362;8.478;2023-05-17T12:27:24;14.50;99.90
8527;DHT22;4301;48.362;8.478;2023-05-17T12:29:52;14.20;99.90
8527;DHT22;4301;48.362;8.478;2023-05-17T12:32:19;14.00;99.90
8527;DHT22;4301;48.362;8.478;2023-05-17T12:34:46;14.40;99.90
8527;DHT22;4301;48.362;8.478;2023-05-17T12:37:15;14.50;99.90
8527;DHT22;4301;48.362;8.478;2023-05-17T12:39:43;15.40;99.90
8527;DHT22;4301;48.362;8.478;2023-05-17T12:42:10;16.10;99.90
8527;DHT22;4301;48.362;8.478;2023-05-17T12:44:38;15.40;99.90
8527;DHT22;4301;48.362;8.478;2023-05-17T12:47:05;15.20;99.90
8527;DHT22;4301;48.362;8.478;2023-05-17T12:49:37;15.00;99.90
8527;DHT22;4301;48.362;8.478;2023-05-17T12:52:05;14.80;99.90
8527;DHT22;4301;48.362;8.478;2023-05-17T12:54:32;14.80;99.90
8527;DHT22;4301;48.362;8.478;2023-05-17T12:57:09;14.60;99.90
8527;DHT22;4301;48.362;8.478;2023-05-17T12:59:45;14.60;99.90
8527;DHT22;4301;48.362;8.478;2023-05-17T13:02:12;14.60;99.90
8527;DHT22;4301;48.362;8.478;2023-05-17T13:04:39;14.70;99.90
8527;DHT22;4301;48.362;8.478;2023-05-17T13:07:06;15.30;99.90
8527;DHT22;4301;48.362;8.478;2023-05-17T13:09:33;15.90;99.90
8527;DHT22;4301;48.362;8.478;2023-05-17T13:12:18;16.40;99.90
8527;DHT22;4301;48.362;8.478;2023-05-17T13:14:47;16.30;99.90
8527;DHT22;4301;48.362;8.478;2023-05-17T13:17:17;16.40;99.90
8527;DHT22;4301;48.362;8.478;2023-05-17T13:19:44;16.30;99.90
8527;DHT22;4301;48.362;8.478;2023-05-17T13:22:11;15.90;99.90
8527;DHT22;4301;48.362;8.478;2023-05-17T13:24:40;16.10;99.90
8527;DHT22;4301;48.362;8.478;2023-05-17T13:27:08;16.10;99.90
8527;DHT22;4301;48.362;8.478;2023-05-17T13:29:40;16.60;99.90
8527;DHT22;4301;48.362;8.478;2023-05-17T13:32:09;16.70;99.90
8527;DHT22;4301;48.362;8.478;2023-05-17T13:34:37;16.60;99.90
8527;DHT22;4301;48.362;8.478;2023-05-17T13:37:05;16.20;99.90
8527;DHT22;4301;48.362;8.478;2023-05-17T13:39:32;15.30;99.90
8527;DHT22;4301;48.362;8.478;2023-05-17T13:41:59;14.90;99.90
8527;DHT22;4301;48.362;8.478;2023-05-17T13:44:26;14.70;99.90
8527;DHT22;4301;48.362;8.478;2023-05-17T13:46:54;14.80;99.90
8527;DHT22;4301;48.362;8.478;2023-05-17T13:49:21;15.00;99.90
8527;DHT22;4301;48.362;8.478;2023-05-17T13:51:48;15.00;99.90
8527;DHT22;4301;48.362;8.478;2023-05-17T13:54:15;15.00;99.90
8527;DHT22;4301;48.362;8.478;2023-05-17T13:56:44;14.80;99.90
8527;DHT22;4301;48.362;8.478;2023-05-17T13:59:11;14.80;99.90
8527;DHT22;4301;48.362;8.478;2023-05-17T14:01:39;14.70;99.90
8527;DHT22;4301;48.362;8.478;2023-05-17T14:04:07;14.80;99.90
8527;DHT22;4301;48.362;8.478;2023-05-17T14:06:34;14.60;99.90
8527;DHT22;4301;48.362;8.478;2023-05-17T14:09:01;14.30;99.90
8527;DHT22;4301;48.362;8.478;2023-05-17T14:11:28;14.10;99.90
8527;DHT22;4301;48.362;8.478;2023-05-17T14:13:55;14.10;99.90
8527;DHT22;4301;48.362;8.478;2023-05-17T14:16:22;14.00;99.90
8527;DHT22;4301;48.362;8.478;2023-05-17T14:18:49;14.00;99.90
8527;DHT22;4301;48.362;8.478;2023-05-17T14:21:17;14.10;99.90
8527;DHT22;4301;48.362;8.478;2023-05-17T14:23:44;13.90;99.90
8527;DHT22;4301;48.362;8.478;2023-05-17T14:26:11;13.70;99.90
8527;DHT22;4301;48.362;8.478;2023-05-17T14:28:38;13.80;99.90
8527;DHT22;4301;48.362;8.478;2023-05-17T14:31:05;13.60;99.90
8527;DHT22;4301;48.362;8.478;2023-05-17T14:33:32;13.70;99.90
8527;DHT22;4301;48.362;8.478;2023-05-17T14:36:00;13.70;99.90
8527;DHT22;4301;48.362;8.478;2023-05-17T14:38:29;13.60;99.90
8527;DHT22;4301;48.362;8.478;2023-05-17T14:40:56;13.60;99.90
8527;DHT22;4301;48.362;8.478;2023-05-17T14:43:25;14.00;99.90
8527;DHT22;4301;48.362;8.478;2023-05-17T14:45:52;14.20;99.90
8527;DHT22;4301;48.362;8.478;2023-05-17T14:48:19;14.40;99.90
8527;DHT22;4301;48.362;8.478;2023-05-17T14:50:46;14.40;99.90
8527;DHT22;4301;48.362;8.478;2023-05-17T14:53:13;14.30;99.90
8527;DHT22;4301;48.362;8.478;2023-05-17T14:55:41;14.10;99.90
8527;DHT22;4301;48.362;8.478;2023-05-17T14:58:08;13.90;99.90
8527;DHT22;4301;48.362;8.478;2023-05-17T15:00:37;13.70;99.90
8527;DHT22;4301;48.362;8.478;2023-05-17T15:03:06;13.30;99.90
8527;DHT22;4301;48.362;8.478;2023-05-17T15:05:33;13.20;99.90
8527;DHT22;4301;48.362;8.478;2023-05-17T15:08:00;13.20;99.90
8527;DHT22;4301;48.362;8.478;2023-05-17T15:10:27;13.20;99.90
8527;DHT22;4301;48.362;8.478;2023-05-17T15:12:55;13.30;99.90
8527;DHT22;4301;48.362;8.478;2023-05-17T15:15:23;13.50;99.90
8527;DHT22;4301;48.362;8.478;2023-05-17T15:17:50;13.80;99.90
8527;DHT22;4301;48.362;8.478;2023-05-17T15:20:17;13.70;99.90
8527;DHT22;4301;48.362;8.478;2023-05-17T15:22:44;13.80;99.90
8527;DHT22;4301;48.362;8.478;2023-05-17T15:25:12;13.90;99.90
8527;DHT22;4301;48.362;8.478;2023-05-17T15:27:39;13.60;99.90
8527;DHT22;4301;48.362;8.478;2023-05-17T15:30:09;13.10;99.90
8527;DHT22;4301;48.362;8.478;2023-05-17T15:32:36;13.30;99.90
8527;DHT22;4301;48.362;8.478;2023-05-17T15:35:03;13.40;99.90
8527;DHT22;4301;48.362;8.478;2023-05-17T15:37:30;13.50;99.90
8527;DHT22;4301;48.362;8.478;2023-05-17T15:40:06;13.30;99.90
8527;DHT22;4301;48.362;8.478;2023-05-17T15:42:33;13.40;99.90
8527;DHT22;4301;48.362;8.478;2023-05-17T15:45:00;13.80;99.90
8527;DHT22;4301;48.362;8.478;2023-05-17T15:47:28;13.80;99.90
8527;DHT22;4301;48.362;8.478;2023-05-17T15:49:56;13.60;99.90
8527;DHT22;4301;48.362;8.478;2023-05-17T15:52:23;13.70;99.90
8527;DHT22;4301;48.362;8.478;2023-05-17T15:54:50;13.20;99.90
8527;DHT22;4301;48.362;8.478;2023-05-17T15:57:18;13.10;99.90
8527;DHT22;4301;48.362;8.478;2023-05-17T15:59:45;12.80;99.90
8527;DHT22;4301;48.362;8.478;2023-05-17T16:02:12;12.60;99.90
8527;DHT22;4301;48.362;8.478;2023-05-17T16:04:40;12.70;99.90
8527;DHT22;4301;48.362;8.478;2023-05-17T16:07:08;12.70;99.90
8527;DHT22;4301;48.362;8.478;2023-05-17T16:09:35;12.80;99.90
8527;DHT22;4301;48.362;8.478;2023-05-17T16:12:03;12.70;99.90
8527;DHT22;4301;48.362;8.478;2023-05-17T16:14:30;12.60;99.90
8527;DHT22;4301;48.362;8.478;2023-05-17T16:16:57;12.70;99.90
8527;DHT22;4301;48.362;8.478;2023-05-17T16:19:24;12.90;99.90